Time;durP1;ratioP1;P1;durP2;ratioP2;P2;SDS_P1;SDS_P2;PMS_P1;PMS_P2;Temp;Humidity;BMP_temperature;BMP_pressure;BME280_temperature;BME280_humidity;BME280_pressure;Samples;Min_cycle;Max_cycle;Signal;HPM_P1;HPM_P2
2023/05/10 00:01:29;;;;;;;3.72;2.45;;;;;;;22.75;56.74;100653.31;5036458;28;20060;-56
2023/05/10 00:03:56;;;;;;;3.80;2.35;;;;;;;22.74;56.95;100648.91;5036196;28;20034;-55
2023/05/10 00:06:24;;;;;;;3.67;2.42;;;;;;;22.73;56.98;100648.06;5036081;28;20056;-55
2023/05/10 00:08:51;;;;;;;2.92;2.13;;;;;;;22.71;56.93;100640.13;5036362;28;20049;-56
2023/05/10 00:11:18;;;;;;;3.67;2.50;;;;;;;22.71;57.05;100653.59;5036101;28;20045;-56
2023/05/10 00:13:48;;;;;;;3.78;2.22;;;;;;;22.73;57.06;100647.19;5035836;28;20045;-56
2023/05/10 00:16:16;;;;;;;3.67;2.08;;;;;;;22.70;57.11;100643.81;5035958;28;20068;-56
2023/05/10 00:18:43;;;;;;;5.30;2.90;;;;;;;22.72;57.05;100649.06;5035618;28;20049;-56
2023/05/10 00:21:11;;;;;;;3.38;2.45;;;;;;;22.71;56.97;100642.81;5035910;28;20061;-56
2023/05/10 00:23:38;;;;;;;3.25;2.45;;;;;;;22.71;57.12;100640.13;5035873;28;20049;-55
2023/05/10 00:26:05;;;;;;;3.05;2.20;;;;;;;22.71;57.08;100636.56;5035767;28;20046;-55
2023/05/10 00:28:33;;;;;;;2.90;2.10;;;;;;;22.69;56.96;100628.66;5035797;28;20068;-56
2023/05/10 00:31:00;;;;;;;4.90;2.50;;;;;;;22.70;56.99;100633.03;5035786;28;20053;-56
2023/05/10 00:33:29;;;;;;;4.30;2.20;;;;;;;22.70;56.93;100618.69;5034279;28;20046;-56
2023/05/10 00:35:56;;;;;;;3.67;2.28;;;;;;;22.69;57.04;100615.16;5035550;28;20049;-56
2023/05/10 00:38:24;;;;;;;3.60;2.15;;;;;;;22.70;57.05;100616.84;5035615;28;20045;-56
2023/05/10 00:40:51;;;;;;;3.60;2.65;;;;;;;22.69;56.94;100633.22;5035537;28;20400;-58
2023/05/10 00:43:26;;;;;;;3.92;2.85;;;;;;;22.69;57.00;100628.66;5035008;28;20053;-58
2023/05/10 00:45:54;;;;;;;3.85;2.35;;;;;;;22.68;57.11;100624.22;5034041;28;20064;-58
2023/05/10 00:48:22;;;;;;;3.00;2.25;;;;;;;22.70;57.08;100627.63;5033938;28;20049;-58
2023/05/10 00:50:49;;;;;;;3.08;2.00;;;;;;;22.69;57.20;100623.25;5034901;28;20072;-56
2023/05/10 00:53:18;;;;;;;3.13;2.45;;;;;;;22.68;57.04;100616.13;5035121;28;20049;-56
2023/05/10 00:55:46;;;;;;;3.42;2.72;;;;;;;22.69;57.09;100619.72;5034085;28;20076;-55
2023/05/10 00:58:14;;;;;;;3.50;2.47;;;;;;;22.69;57.23;100614.31;5033977;28;20068;-56
2023/05/10 01:00:43;;;;;;;3.53;2.53;;;;;;;22.68;57.40;100607.19;5035225;28;20048;-56
2023/05/10 01:03:14;;;;;;;3.10;2.30;;;;;;;22.68;57.37;100613.44;5035250;28;20101;-56
2023/05/10 01:05:41;;;;;;;3.10;2.30;;;;;;;22.68;57.22;100612.59;5033990;28;20057;-56
2023/05/10 01:08:08;;;;;;;3.03;2.22;;;;;;;22.68;57.23;100610.75;5035092;28;20049;-56
2023/05/10 01:10:36;;;;;;;4.30;2.78;;;;;;;22.68;57.29;100613.44;5033858;28;20053;-56
2023/05/10 01:13:03;;;;;;;6.93;2.50;;;;;;;22.68;57.42;100613.44;5033948;28;20419;-56
2023/05/10 01:15:31;;;;;;;5.38;2.92;;;;;;;22.68;57.44;100607.19;5034662;28;20045;-56
2023/05/10 01:18:00;;;;;;;4.05;3.03;;;;;;;22.67;57.57;100603.66;5034779;28;20420;-56
2023/05/10 01:20:35;;;;;;;4.75;2.75;;;;;;;22.69;57.57;100614.31;5033502;28;20064;-58
2023/05/10 01:23:23;;;;;;;3.47;2.03;;;;;;;22.68;57.43;100610.75;5034821;28;20053;-58
2023/05/10 01:26:23;;;;;;;2.72;1.98;;;;;;;22.66;57.31;100610.06;5033729;28;20049;-58
2023/05/10 01:29:29;;;;;;;3.20;2.35;;;;;;;22.67;57.61;100605.50;5022496;28;20392;-58
2023/05/10 01:32:36;;;;;;;3.72;2.30;;;;;;;22.68;57.65;100612.59;5034557;28;20060;-55
2023/05/10 01:35:16;;;;;;;2.92;1.98;;;;;;;22.66;57.59;100607.38;5034378;28;20049;-56
2023/05/10 01:37:50;;;;;;;3.67;2.55;;;;;;;22.66;57.67;100610.06;5033675;28;20403;-56
2023/05/10 01:40:36;;;;;;;2.80;1.90;;;;;;;22.66;57.72;100618.16;5033166;28;20049;-58
2023/05/10 01:43:10;;;;;;;3.50;2.40;;;;;;;22.67;57.69;100627.94;5033118;28;20060;-58
2023/05/10 01:46:10;;;;;;;6.60;2.72;;;;;;;22.66;57.54;100625.41;5034427;28;20041;-58
2023/05/10 01:48:46;;;;;;;3.58;2.63;;;;;;;22.66;57.60;100623.56;5033511;28;20502;-58
2023/05/10 01:51:22;;;;;;;5.05;2.20;;;;;;;22.64;57.70;100622.84;5033178;28;20057;-57
2023/05/10 01:53:54;;;;;;;3.88;2.42;;;;;;;22.66;57.91;100625.41;5034042;28;20052;-58
2023/05/10 01:56:25;;;;;;;3.50;2.30;;;;;;;22.66;57.88;100620.88;5034160;28;20049;-58
2023/05/10 01:58:54;;;;;;;3.80;2.55;;;;;;;22.66;58.17;100622.72;5034125;28;20049;-58
2023/05/10 02:01:22;;;;;;;3.10;2.40;;;;;;;22.67;57.68;100619.00;5032478;28;20409;-57
2023/05/10 02:03:52;;;;;;;4.07;2.95;;;;;;;22.66;57.76;100620.88;5033927;28;20075;-58
2023/05/10 02:06:23;;;;;;;5.63;2.83;;;;;;;22.66;57.70;100614.63;5032996;28;20057;-58
2023/05/10 02:08:53;;;;;;;3.40;2.30;;;;;;;22.66;57.82;100617.31;5032237;28;20549;-58
2023/05/10 02:11:22;;;;;;;3.70;2.40;;;;;;;22.65;57.84;100616.47;5033973;28;20389;-58
2023/05/10 02:13:51;;;;;;;4.53;2.08;;;;;;;22.66;57.76;100620.88;5033583;28;20048;-58
2023/05/10 02:16:23;;;;;;;3.78;2.58;;;;;;;22.64;57.93;100620.16;5032361;28;20491;-58
2023/05/10 02:18:52;;;;;;;3.67;2.10;;;;;;;22.65;57.98;100615.63;5033761;28;20053;-58
2023/05/10 02:21:21;;;;;;;3.25;2.28;;;;;;;22.64;57.88;100622.03;5032425;28;20403;-58
2023/05/10 02:23:50;;;;;;;3.63;3.08;;;;;;;22.63;57.88;100618.47;5033392;28;20058;-58
2023/05/10 02:26:21;;;;;;;3.22;2.20;;;;;;;22.64;58.02;100624.72;5033370;28;20502;-58
2023/05/10 02:28:49;;;;;;;3.28;2.63;;;;;;;22.63;58.02;100623.88;5033459;28;20068;-59
2023/05/10 02:31:17;;;;;;;3.05;2.10;;;;;;;22.64;58.00;100624.72;5033405;28;20053;-56
2023/05/10 02:33:45;;;;;;;3.80;2.47;;;;;;;22.63;57.92;100626.56;5033639;28;20392;-56
2023/05/10 02:36:14;;;;;;;3.13;2.10;;;;;;;22.64;58.03;100630.97;5033522;28;20509;-55
2023/05/10 02:38:44;;;;;;;2.90;2.17;;;;;;;22.64;58.04;100633.66;5033788;28;20053;-55
2023/05/10 02:41:12;;;;;;;4.07;2.22;;;;;;;22.63;58.11;100625.72;5033579;28;20045;-55
2023/05/10 02:43:41;;;;;;;4.57;2.83;;;;;;;22.63;58.02;100626.56;5032419;28;20056;-55
2023/05/10 02:46:09;;;;;;;3.17;2.00;;;;;;;22.63;58.10;100621.19;5033122;28;20052;-55
2023/05/10 02:48:36;;;;;;;5.22;2.78;;;;;;;22.62;57.93;100622.19;5032011;28;20063;-55
2023/05/10 02:51:07;;;;;;;4.10;2.10;;;;;;;22.62;57.93;100615.94;5033333;28;20061;-57
2023/05/10 02:53:38;;;;;;;3.50;2.38;;;;;;;22.62;57.94;100602.47;5032376;28;20397;-57
2023/05/10 02:56:15;;;;;;;4.10;2.20;;;;;;;22.62;58.09;100607.84;5033326;28;20048;-58
2023/05/10 02:58:42;;;;;;;4.20;2.50;;;;;;;22.61;57.89;100601.63;5033419;28;20053;-58
2023/05/10 03:01:09;;;;;;;4.28;2.47;;;;;;;22.61;57.86;100593.53;5033275;28;20045;-56
2023/05/10 03:03:38;;;;;;;4.63;2.00;;;;;;;22.61;58.17;100601.63;5032449;28;20045;-55
2023/05/10 03:06:05;;;;;;;3.75;2.53;;;;;;;22.62;58.27;100595.19;5032375;28;20053;-55
2023/05/10 03:08:33;;;;;;;3.20;2.00;;;;;;;22.61;58.24;100593.53;5033373;28;20041;-55
2023/05/10 03:11:00;;;;;;;3.40;2.30;;;;;;;22.62;58.27;100588.97;5031909;28;20068;-56
2023/05/10 03:13:36;;;;;;;3.58;2.45;;;;;;;22.62;58.37;100583.56;5034869;28;20053;-55
2023/05/10 03:16:12;;;;;;;3.88;2.30;;;;;;;22.61;58.38;100577.34;5037031;28;20053;-55
2023/05/10 03:18:50;;;;;;;4.40;2.15;;;;;;;22.60;58.23;100578.31;5036152;28;20069;-55
2023/05/10 03:21:18;;;;;;;3.58;2.60;;;;;;;22.60;58.31;100572.91;5035755;28;20049;-58
2023/05/10 03:24:08;;;;;;;4.22;2.53;;;;;;;22.60;58.10;100572.91;5035942;28;20053;-58
2023/05/10 03:26:38;;;;;;;4.15;2.78;;;;;;;22.59;58.31;100576.63;5035719;28;20056;-58
2023/05/10 03:29:15;;;;;;;3.10;2.40;;;;;;;22.60;58.28;100572.91;5037033;28;20053;-58
2023/05/10 03:31:43;;;;;;;3.58;2.30;;;;;;;22.60;58.33;100578.31;5036218;28;20053;-58
2023/05/10 03:34:11;;;;;;;3.17;2.20;;;;;;;22.60;58.42;100575.63;5035829;28;20064;-58
2023/05/10 03:36:38;;;;;;;3.35;2.40;;;;;;;22.60;58.36;100572.91;5036760;28;20041;-58
2023/05/10 03:39:05;;;;;;;4.32;2.30;;;;;;;22.60;58.49;100566.69;5036921;28;20045;-58
2023/05/10 03:41:33;;;;;;;5.18;2.20;;;;;;;22.60;58.02;100572.91;5035817;28;20053;-58
2023/05/10 03:44:01;;;;;;;3.53;2.28;;;;;;;22.60;58.28;100578.31;5035235;28;20072;-58
2023/05/10 03:46:28;;;;;;;4.05;2.28;;;;;;;22.60;58.25;100574.78;5019090;28;20061;-58
2023/05/10 03:48:56;;;;;;;3.03;2.47;;;;;;;22.60;58.17;100564.81;5035551;28;20054;-57
2023/05/10 03:51:27;;;;;;;5.10;2.40;;;;;;;22.60;58.20;100567.53;5035241;28;20050;-57
2023/05/10 03:53:55;;;;;;;3.63;2.30;;;;;;;22.60;58.42;100562.13;5036426;28;20060;-58
2023/05/10 03:56:23;;;;;;;3.70;2.05;;;;;;;22.60;58.40;100567.53;5035173;28;20388;-57
2023/05/10 03:58:50;;;;;;;3.63;2.15;;;;;;;22.60;58.28;100572.06;5035317;28;20056;-57
2023/05/10 04:01:17;;;;;;;3.58;2.53;;;;;;;22.60;58.10;100572.06;5036290;28;20045;-55
2023/05/10 04:03:46;;;;;;;3.92;2.40;;;;;;;22.60;58.10;100561.28;5035362;28;20060;-55
2023/05/10 04:06:13;;;;;;;3.92;2.42;;;;;;;22.59;58.30;100560.44;5035405;28;20053;-55
2023/05/10 04:08:41;;;;;;;2.88;1.75;;;;;;;22.59;58.01;100565.84;5035070;28;20072;-55
2023/05/10 04:11:12;;;;;;;3.45;1.92;;;;;;;22.58;58.20;100572.25;5036374;28;20048;-57
2023/05/10 04:13:39;;;;;;;3.80;2.50;;;;;;;22.58;58.19;100569.53;5036010;28;20050;-58
2023/05/10 04:16:07;;;;;;;3.10;1.92;;;;;;;22.58;58.11;100566.84;5035994;28;20038;-58
2023/05/10 04:18:34;;;;;;;4.15;2.03;;;;;;;22.57;58.21;100573.25;5035991;28;20050;-58
2023/05/10 04:21:02;;;;;;;4.22;2.13;;;;;;;22.58;58.05;100577.66;5034974;28;20049;-55
2023/05/10 04:23:29;;;;;;;3.60;2.00;;;;;;;22.58;58.14;100571.41;5034777;28;20046;-56
2023/05/10 04:26:01;;;;;;;5.22;2.42;;;;;;;22.58;57.98;100569.53;5034068;28;20480;-56
2023/05/10 04:28:28;;;;;;;5.03;2.90;;;;;;;22.57;57.82;100562.47;5035418;28;20053;-56
2023/05/10 04:31:06;;;;;;;2.85;2.10;;;;;;;22.57;58.14;100564.31;5035422;28;20057;-57
2023/05/10 04:33:35;;;;;;;3.35;2.00;;;;;;;22.57;57.92;100557.06;5034377;28;20072;-58
2023/05/10 04:36:03;;;;;;;3.20;2.17;;;;;;;22.56;57.96;100560.75;5035627;28;20046;-58
2023/05/10 04:38:30;;;;;;;3.88;1.90;;;;;;;22.56;57.93;100558.06;5035635;28;20052;-58
2023/05/10 04:41:08;;;;;;;2.70;1.73;;;;;;;22.56;58.02;100565.31;5035564;28;20053;-56
2023/05/10 04:43:36;;;;;;;3.75;2.30;;;;;;;22.56;57.92;100559.91;5035826;28;20052;-55
2023/05/10 04:46:04;;;;;;;3.05;2.10;;;;;;;22.56;57.90;100555.34;5035554;28;20048;-55
2023/05/10 04:48:33;;;;;;;2.72;2.03;;;;;;;22.55;57.90;100564.47;5035496;28;20121;-55
2023/05/10 04:51:00;;;;;;;3.97;2.08;;;;;;;22.55;57.70;100553.66;5035367;28;20049;-58
2023/05/10 04:53:28;;;;;;;3.70;2.17;;;;;;;22.55;57.90;100559.06;5035246;28;20052;-58
2023/05/10 04:55:55;;;;;;;3.42;2.08;;;;;;;22.54;58.03;100562.78;5035132;28;20049;-58
2023/05/10 04:58:23;;;;;;;3.58;2.08;;;;;;;22.54;57.73;100556.53;5035289;28;20056;-58
2023/05/10 05:00:50;;;;;;;2.80;2.13;;;;;;;22.55;57.80;100556.38;5035211;28;20381;-55
2023/05/10 05:03:17;;;;;;;3.55;2.10;;;;;;;22.54;57.80;100560.09;5035181;28;20052;-55
2023/05/10 05:05:45;;;;;;;4.55;2.28;;;;;;;22.55;57.79;100559.06;5034833;28;20045;-56
2023/05/10 05:08:13;;;;;;;3.50;1.80;;;;;;;22.55;57.65;100558.22;5035062;28;20052;-56
2023/05/10 05:10:40;;;;;;;2.85;1.98;;;;;;;22.54;57.74;100553.84;5035038;28;20407;-58
2023/05/10 05:13:07;;;;;;;3.13;1.98;;;;;;;22.54;57.75;100565.47;5035012;28;20049;-58
2023/05/10 05:15:34;;;;;;;6.82;2.63;;;;;;;22.54;57.97;100564.63;5034608;28;20053;-58
2023/05/10 05:18:02;;;;;;;5.90;2.40;;;;;;;22.54;57.66;100562.78;5035102;28;20050;-58
2023/05/10 05:20:32;;;;;;;2.80;1.90;;;;;;;22.53;57.84;100555.69;5034947;28;20384;-56
2023/05/10 05:23:00;;;;;;;4.10;1.83;;;;;;;22.53;57.70;100566.50;5035034;28;20483;-55
2023/05/10 05:25:28;;;;;;;3.38;2.30;;;;;;;22.53;57.72;100560.25;5034611;28;20053;-55
2023/05/10 05:27:55;;;;;;;2.83;2.17;;;;;;;22.53;57.58;100563.78;5034586;28;20046;-55
2023/05/10 05:30:22;;;;;;;3.05;2.03;;;;;;;22.53;57.85;100562.94;5034747;28;20056;-56
2023/05/10 05:32:50;;;;;;;3.60;1.92;;;;;;;22.53;57.86;100560.25;5034724;28;20057;-55
2023/05/10 05:35:17;;;;;;;3.55;2.25;;;;;;;22.52;57.77;100562.06;5034134;28;20053;-55
2023/05/10 05:37:46;;;;;;;3.08;1.88;;;;;;;22.52;57.75;100561.22;5034821;28;20042;-55
2023/05/10 05:40:13;;;;;;;3.42;2.30;;;;;;;22.52;57.37;100561.22;5034507;28;20045;-57
2023/05/10 05:42:41;;;;;;;2.63;1.75;;;;;;;22.51;57.39;100552.31;5034615;28;20049;-58
2023/05/10 05:45:12;;;;;;;3.20;1.90;;;;;;;22.52;57.57;100558.53;5034398;28;20057;-58
2023/05/10 05:47:40;;;;;;;4.07;2.22;;;;;;;22.51;57.56;100565.78;5034593;28;20108;-58
2023/05/10 05:50:08;;;;;;;4.38;2.10;;;;;;;22.51;57.50;100559.56;5034433;28;20052;-55
2023/05/10 05:52:36;;;;;;;4.45;2.17;;;;;;;22.51;57.43;100560.38;5034586;28;20053;-55
2023/05/10 05:55:03;;;;;;;5.80;2.20;;;;;;;22.52;57.27;100558.53;5034037;28;20377;-56
2023/05/10 05:57:31;;;;;;;4.80;2.33;;;;;;;22.50;57.67;100558.72;5034105;28;20495;-55
2023/05/10 05:59:59;;;;;;;4.25;2.15;;;;;;;22.51;57.57;100568.50;5034300;28;20053;-57
2023/05/10 06:02:26;;;;;;;3.13;1.75;;;;;;;22.51;57.54;100564.94;5034126;28;20041;-58
2023/05/10 06:04:54;;;;;;;8.13;1.95;;;;;;;22.50;57.80;100569.50;5033953;28;20049;-58
2023/05/10 06:07:21;;;;;;;2.95;1.90;;;;;;;22.50;57.50;100569.50;5034013;28;20048;-58
2023/05/10 06:09:48;;;;;;;4.97;1.80;;;;;;;22.50;57.76;100572.19;5033996;28;20052;-55
2023/05/10 06:12:15;;;;;;;2.92;1.83;;;;;;;22.50;57.72;100571.34;5034101;28;20042;-55
2023/05/10 06:14:43;;;;;;;3.20;1.88;;;;;;;22.50;57.57;100577.59;5033920;28;20407;-55
2023/05/10 06:17:10;;;;;;;3.42;1.90;;;;;;;22.49;57.47;100581.31;5033665;28;20044;-57
2023/05/10 06:19:38;;;;;;;3.45;1.95;;;;;;;22.50;57.64;100577.59;5033765;28;20049;-55
2023/05/10 06:22:05;;;;;;;3.63;1.95;;;;;;;22.50;57.81;100576.75;5033804;28;20053;-55
2023/05/10 06:24:32;;;;;;;3.70;1.95;;;;;;;22.50;57.78;100580.28;5033718;28;20053;-55
2023/05/10 06:27:00;;;;;;;3.45;1.80;;;;;;;22.50;57.70;100571.34;5033659;28;20050;-55
2023/05/10 06:29:27;;;;;;;4.65;2.03;;;;;;;22.49;57.81;100575.91;5033705;28;20052;-56
2023/05/10 06:31:54;;;;;;;6.22;2.28;;;;;;;22.50;57.80;100568.66;5033686;28;20042;-56
2023/05/10 06:34:22;;;;;;;4.70;2.15;;;;;;;22.49;57.84;100569.66;5033704;28;20049;-55
2023/05/10 06:36:49;;;;;;;3.72;2.20;;;;;;;22.50;57.90;100583.00;5033288;28;20045;-55
2023/05/10 06:39:16;;;;;;;3.10;2.15;;;;;;;22.50;57.54;100577.59;5032928;28;20049;-55
2023/05/10 06:41:44;;;;;;;5.72;2.55;;;;;;;22.48;56.73;100576.03;5033633;28;20056;-59
2023/05/10 06:44:11;;;;;;;6.57;2.47;;;;;;;22.46;56.39;100574.38;5033678;28;20391;-58
2023/05/10 06:46:38;;;;;;;3.88;2.03;;;;;;;22.46;56.98;100576.22;5031433;28;20092;-57
2023/05/10 06:49:05;;;;;;;5.97;2.30;;;;;;;22.42;55.84;100573.00;5033175;28;20053;-56
2023/05/10 06:51:33;;;;;;;3.50;2.15;;;;;;;22.36;56.04;100576.34;5033162;28;20048;-56
2023/05/10 06:54:01;;;;;;;4.85;2.55;;;;;;;22.30;56.09;100581.50;5033067;28;20065;-56
2023/05/10 06:56:29;;;;;;;5.43;2.33;;;;;;;22.23;55.83;100569.63;5033418;28;20045;-56
2023/05/10 06:58:56;;;;;;;5.32;2.20;;;;;;;22.18;56.00;100578.19;5033378;28;20361;-56
2023/05/10 07:01:23;;;;;;;3.25;2.13;;;;;;;22.15;56.46;100578.50;5033569;28;20050;-56
2023/05/10 07:03:51;;;;;;;5.13;2.00;;;;;;;22.15;56.72;100575.81;5033205;28;20061;-57
2023/05/10 07:06:18;;;;;;;8.63;2.17;;;;;;;22.17;57.09;100571.97;5033453;28;20050;-57
2023/05/10 07:09:00;;;;;;;6.40;2.22;;;;;;;22.20;57.30;100577.06;5033370;28;20049;-57
2023/05/10 07:11:27;;;;;;;3.33;2.13;;;;;;;22.21;57.58;100573.34;5032864;28;20049;-55
2023/05/10 07:13:54;;;;;;;4.22;2.10;;;;;;;22.25;57.67;100583.81;5032544;28;20054;-55
2023/05/10 07:16:22;;;;;;;5.45;2.33;;;;;;;22.26;57.46;100580.13;5032608;28;20050;-55
2023/05/10 07:18:50;;;;;;;5.05;2.15;;;;;;;22.28;57.32;100578.09;5031652;28;20056;-55
2023/05/10 07:21:18;;;;;;;4.07;2.40;;;;;;;22.29;57.37;100580.66;5032451;28;20052;-57
2023/05/10 07:23:46;;;;;;;4.45;1.95;;;;;;;22.30;57.59;100586.88;5032538;28;20046;-57
2023/05/10 07:26:14;;;;;;;3.22;1.70;;;;;;;22.30;57.47;100582.34;5032658;28;20064;-57
2023/05/10 07:28:42;;;;;;;4.13;2.00;;;;;;;22.32;57.52;100576.78;5031315;28;20046;-57
2023/05/10 07:31:09;;;;;;;3.92;2.40;;;;;;;22.32;57.13;100590.25;5032694;28;20045;-55
2023/05/10 07:33:36;;;;;;;3.88;2.10;;;;;;;22.32;57.27;100583.03;5032536;28;20052;-55
2023/05/10 07:36:03;;;;;;;4.75;2.22;;;;;;;22.32;57.21;100588.44;5032293;28;20046;-55
2023/05/10 07:38:31;;;;;;;2.92;1.65;;;;;;;22.34;57.08;100593.66;5032396;28;20403;-55
2023/05/10 07:40:58;;;;;;;2.70;1.85;;;;;;;22.34;57.18;100593.66;5032685;28;20056;-56
2023/05/10 07:43:25;;;;;;;5.75;2.47;;;;;;;22.33;57.08;100595.53;5032441;28;20594;-57
2023/05/10 07:45:53;;;;;;;4.90;2.42;;;;;;;22.34;57.07;100593.66;5032373;28;20072;-58
2023/05/10 07:48:22;;;;;;;5.18;2.28;;;;;;;22.34;57.14;100596.38;5032464;28;20506;-57
2023/05/10 07:50:49;;;;;;;3.95;2.05;;;;;;;22.34;56.89;100586.41;5032248;28;20053;-56
2023/05/10 07:53:18;;;;;;;3.85;1.95;;;;;;;22.34;57.17;100590.97;5032277;28;20050;-57
2023/05/10 07:55:51;;;;;;;5.97;2.28;;;;;;;22.33;56.98;100594.69;5031061;28;20053;-58
2023/05/10 07:58:18;;;;;;;4.40;2.17;;;;;;;22.33;57.10;100592.81;5032923;28;20044;-57
2023/05/10 08:00:46;;;;;;;2.50;1.80;;;;;;;22.32;57.06;100593.84;5035952;28;20054;-56
2023/05/10 08:03:13;;;;;;;3.15;1.90;;;;;;;22.34;57.04;100596.38;5034480;28;20049;-57
2023/05/10 08:05:41;;;;;;;4.50;2.05;;;;;;;22.32;56.97;100592.97;5035461;28;20064;-57
2023/05/10 08:08:08;;;;;;;4.78;2.15;;;;;;;22.32;56.98;100592.97;5035708;28;20046;-57
2023/05/10 08:10:35;;;;;;;3.65;2.08;;;;;;;22.32;57.09;100601.94;5035450;28;20053;-57
2023/05/10 08:13:03;;;;;;;4.45;2.10;;;;;;;22.33;57.00;100602.78;5035711;28;20045;-57
2023/05/10 08:15:30;;;;;;;4.20;2.45;;;;;;;22.32;57.00;100607.31;5035265;28;20049;-57
2023/05/10 08:17:57;;;;;;;3.42;1.90;;;;;;;22.33;56.87;100608.16;5035427;28;20034;-58
2023/05/10 08:20:25;;;;;;;4.97;2.10;;;;;;;22.32;56.88;100610.00;5035441;28;20057;-56
2023/05/10 08:22:52;;;;;;;5.00;2.40;;;;;;;22.32;56.62;100606.44;5035762;28;20676;-57
2023/05/10 08:25:20;;;;;;;2.90;2.03;;;;;;;22.32;56.61;100617.22;5035226;28;20049;-57
2023/05/10 08:27:47;;;;;;;2.90;1.95;;;;;;;22.31;56.69;100621.78;5035603;28;20056;-58
2023/05/10 08:30:14;;;;;;;2.35;1.77;;;;;;;22.31;56.85;100616.38;5035934;28;20052;-55
2023/05/10 08:32:41;;;;;;;4.13;1.75;;;;;;;22.31;56.70;100620.94;5035448;28;20064;-55
2023/05/10 08:35:09;;;;;;;5.13;2.45;;;;;;;22.29;56.45;100618.41;5035228;28;20053;-57
2023/05/10 08:37:36;;;;;;;4.32;2.20;;;;;;;22.26;55.82;100616.03;5039391;28;20045;-57
2023/05/10 08:40:04;;;;;;;3.30;2.30;;;;;;;22.19;55.63;100613.09;5049605;28;20053;-56
2023/05/10 08:42:36;;;;;;;3.28;2.15;;;;;;;22.17;56.37;100617.81;5053326;28;20410;-56
2023/05/10 08:45:04;;;;;;;3.50;1.90;;;;;;;22.16;56.58;100618.81;5054752;28;20049;-57
2023/05/10 08:47:32;;;;;;;2.80;2.03;;;;;;;22.17;56.80;100625.06;5045790;28;20045;-58
2023/05/10 08:50:02;;;;;;;3.42;1.90;;;;;;;22.17;56.80;100617.81;5034547;28;20442;-56
2023/05/10 08:52:31;;;;;;;3.15;2.08;;;;;;;22.18;56.79;100616.78;5035275;28;20052;-57
2023/05/10 08:54:59;;;;;;;3.83;2.10;;;;;;;22.20;56.73;100630.09;5034485;28;20049;-57
2023/05/10 08:57:26;;;;;;;3.72;2.00;;;;;;;22.21;56.63;100618.34;5034290;28;20459;-57
2023/05/10 08:59:53;;;;;;;5.57;2.00;;;;;;;22.22;56.40;100628.13;5035289;28;20049;-56
2023/05/10 09:02:22;;;;;;;5.07;2.63;;;;;;;22.21;56.12;100621.88;5074047;28;20044;-60
2023/05/10 09:04:50;;;;;;;7.03;2.45;;;;;;;22.18;55.21;100629.44;5074309;28;20052;-61
2023/05/10 09:07:19;;;;;;;3.63;2.10;;;;;;;22.13;54.91;100639.84;5074189;28;20051;-61
2023/05/10 09:09:47;;;;;;;3.10;2.40;;;;;;;22.05;54.91;100637.03;5073910;28;20063;-57
2023/05/10 09:12:16;;;;;;;3.45;2.05;;;;;;;21.99;55.75;100638.50;5072952;28;20052;-57
2023/05/10 09:14:44;;;;;;;3.50;2.30;;;;;;;21.96;55.64;100644.22;5074305;28;20414;-57
2023/05/10 09:17:12;;;;;;;3.97;2.10;;;;;;;21.96;55.83;100638.81;5073766;28;20048;-57
2023/05/10 09:19:39;;;;;;;3.50;2.50;;;;;;;21.99;56.03;100649.25;5074383;28;20402;-57
2023/05/10 09:22:07;;;;;;;3.53;2.13;;;;;;;22.01;56.13;100641.03;5074463;28;20041;-56
2023/05/10 09:24:34;;;;;;;3.90;2.00;;;;;;;22.03;56.19;100650.66;5074373;28;20499;-57
2023/05/10 09:27:01;;;;;;;3.65;2.22;;;;;;;22.05;55.93;100647.81;5073816;28;20049;-57
2023/05/10 09:29:40;;;;;;;2.92;1.90;;;;;;;22.08;56.20;100658.28;5073998;28;20045;-57
2023/05/10 09:32:07;;;;;;;3.22;2.00;;;;;;;22.08;56.15;100663.66;5067967;28;20059;-57
2023/05/10 09:34:35;;;;;;;3.00;2.10;;;;;;;22.09;56.00;100655.44;5053981;28;20399;-57
2023/05/10 09:37:04;;;;;;;2.42;1.73;;;;;;;22.10;56.05;100659.81;5053758;28;20053;-56
2023/05/10 09:39:35;;;;;;;3.72;2.15;;;;;;;22.12;55.77;100662.34;5053900;28;20045;-57
2023/05/10 09:42:08;;;;;;;2.95;1.98;;;;;;;22.12;55.75;100667.75;5054365;28;20395;-57
2023/05/10 09:44:37;;;;;;;4.28;1.95;;;;;;;22.13;55.84;100670.34;5053501;28;20049;-57
2023/05/10 09:47:05;;;;;;;3.75;2.20;;;;;;;22.12;55.77;100678.53;5053325;28;20099;-58
2023/05/10 09:49:33;;;;;;;3.83;2.00;;;;;;;22.13;55.75;100675.75;5036778;28;20037;-57
2023/05/10 09:52:05;;;;;;;3.90;2.22;;;;;;;22.14;55.49;100676.59;5047995;28;20604;-57
2023/05/10 09:54:33;;;;;;;4.10;1.90;;;;;;;22.14;55.56;100679.28;5053478;28;20419;-56
2023/05/10 09:57:01;;;;;;;2.85;1.73;;;;;;;22.14;55.57;100690.06;5053849;28;20052;-56
2023/05/10 09:59:29;;;;;;;3.78;1.98;;;;;;;22.14;55.63;100682.81;5053575;28;20061;-57
2023/05/10 10:01:59;;;;;;;3.05;1.83;;;;;;;22.14;55.52;100674.72;5053563;28;20048;-57
2023/05/10 10:04:27;;;;;;;3.03;2.25;;;;;;;22.14;55.55;100682.81;5053728;28;20049;-57
2023/05/10 10:07:02;;;;;;;4.13;2.50;;;;;;;22.15;55.55;100691.75;5053666;28;20099;-57
2023/05/10 10:09:30;;;;;;;3.47;2.28;;;;;;;22.14;55.56;100693.59;5053377;28;20472;-57
2023/05/10 10:11:57;;;;;;;3.80;2.20;;;;;;;22.15;55.46;100691.75;5052669;28;20060;-57
2023/05/10 10:14:25;;;;;;;4.03;1.88;;;;;;;22.14;55.29;100690.91;5053109;28;20507;-57
2023/05/10 10:16:53;;;;;;;3.67;2.08;;;;;;;22.15;55.55;100695.28;5053386;28;20048;-57
2023/05/10 10:19:35;;;;;;;3.78;2.03;;;;;;;22.14;55.42;100696.31;5052155;28;20041;-57
2023/05/10 10:22:03;;;;;;;2.90;2.13;;;;;;;22.15;55.42;100702.53;5052508;28;20471;-57
2023/05/10 10:24:30;;;;;;;6.78;2.40;;;;;;;22.15;55.44;100708.78;5053279;28;20049;-56
2023/05/10 10:27:08;;;;;;;2.60;1.65;;;;;;;22.15;55.24;100697.97;5053417;28;20048;-56
2023/05/10 10:29:49;;;;;;;3.50;1.92;;;;;;;22.15;55.34;100707.94;5051752;28;20052;-56
2023/05/10 10:32:48;;;;;;;2.85;1.83;;;;;;;22.15;55.28;100706.06;5052962;28;20466;-57
2023/05/10 10:35:16;;;;;;;2.88;2.00;;;;;;;22.15;55.00;100702.53;5052103;28;20053;-57
2023/05/10 10:37:45;;;;;;;3.67;1.90;;;;;;;22.14;55.18;100704.38;5052831;28;20052;-57
2023/05/10 10:40:30;;;;;;;4.70;2.53;;;;;;;22.14;54.26;100712.47;5052746;28;20071;-57
2023/05/10 10:43:23;;;;;;;3.65;2.13;;;;;;;22.09;52.68;100705.81;5052706;28;20048;-56
2023/05/10 10:46:13;;;;;;;4.53;2.58;;;;;;;22.04;54.01;100713.50;5052588;28;20509;-57
2023/05/10 10:48:48;;;;;;;3.40;2.10;;;;;;;22.02;54.60;100708.28;5052012;28;20049;-57
2023/05/10 10:51:15;;;;;;;3.35;1.95;;;;;;;22.03;54.95;100709.13;5036627;28;20052;-57
2023/05/10 10:53:43;;;;;;;3.05;2.10;;;;;;;22.04;54.74;100716.19;5052101;28;20049;-56
2023/05/10 10:56:13;;;;;;;2.97;1.63;;;;;;;22.04;54.96;100711.69;5053101;28;20048;-56
2023/05/10 10:58:41;;;;;;;4.07;1.75;;;;;;;22.05;54.75;100712.53;5052549;28;20391;-56
2023/05/10 11:01:10;;;;;;;4.07;2.33;;;;;;;22.05;55.02;100705.28;5052754;28;20045;-56
2023/05/10 11:03:37;;;;;;;3.10;2.15;;;;;;;22.06;54.92;100709.66;5053202;28;20045;-57
2023/05/10 11:06:05;;;;;;;5.72;2.22;;;;;;;22.07;54.66;100713.19;5052788;28;20395;-57
2023/05/10 11:08:34;;;;;;;4.78;2.17;;;;;;;22.07;54.46;100705.97;5052191;28;20384;-56
2023/05/10 11:11:08;;;;;;;3.00;2.08;;;;;;;22.02;53.22;100712.81;5052935;28;20048;-57
2023/05/10 11:13:43;;;;;;;2.85;1.70;;;;;;;21.92;53.35;100705.66;5052126;28;20403;-57
2023/05/10 11:16:43;;;;;;;3.00;1.90;;;;;;;21.84;53.46;100710.09;5052342;28;20049;-57
2023/05/10 11:19:12;;;;;;;3.30;1.90;;;;;;;21.79;53.86;100707.00;5052291;28;20494;-56
2023/05/10 11:21:49;;;;;;;2.63;1.77;;;;;;;21.77;54.33;100712.56;5052770;28;20041;-57
2023/05/10 11:24:19;;;;;;;3.55;1.75;;;;;;;21.79;54.48;100718.63;5051572;28;20049;-56
2023/05/10 11:26:49;;;;;;;4.10;2.03;;;;;;;21.81;54.59;100719.34;5051788;28;20045;-57
2023/05/10 11:29:16;;;;;;;4.78;1.83;;;;;;;21.83;54.43;100711.09;5052385;28;20395;-57
2023/05/10 11:31:45;;;;;;;4.53;2.10;;;;;;;21.84;54.16;100726.28;5052203;28;22595;-56
2023/05/10 11:34:31;;;;;;;3.03;1.63;;;;;;;21.87;54.10;100715.19;5054465;28;20052;-56
2023/05/10 11:36:59;;;;;;;5.35;1.58;;;;;;;21.89;54.04;100718.59;5056071;28;20048;-56